sensor_id;sensor_type;location;lat;lon;timestamp;P1;durP1;ratioP1;P2;durP2;ratioP2
51901;SDS011;37929;53.218;6.548;2023-02-15T00:01:49;48.10;;;23.65;;
51901;SDS011;37929;53.218;6.548;2023-02-15T00:04:16;45.28;;;24.23;;
51901;SDS011;37929;53.218;6.548;2023-02-15T00:06:43;51.13;;;25.17;;
51901;SDS011;37929;53.218;6.548;2023-02-15T00:09:10;45.33;;;23.90;;
51901;SDS011;37929;53.218;6.548;2023-02-15T00:11:36;39.75;;;23.23;;
51901;SDS011;37929;53.218;6.548;2023-02-15T00:16:42;49.92;;;23.60;;
51901;SDS011;37929;53.218;6.548;2023-02-15T00:19:09;42.25;;;22.42;;
51901;SDS011;37929;53.218;6.548;2023-02-15T00:21:36;43.17;;;23.85;;
51901;SDS011;37929;53.218;6.548;2023-02-15T00:24:04;47.05;;;25.67;;
51901;SDS011;37929;53.218;6.548;2023-02-15T00:26:31;40.30;;;22.88;;
51901;SDS011;37929;53.218;6.548;2023-02-15T00:28:57;42.72;;;22.52;;
51901;SDS011;37929;53.218;6.548;2023-02-15T00:31:24;48.10;;;24.35;;
51901;SDS011;37929;53.218;6.548;2023-02-15T00:33:50;41.97;;;22.52;;
51901;SDS011;37929;53.218;6.548;2023-02-15T00:36:16;41.30;;;23.85;;
51901;SDS011;37929;53.218;6.548;2023-02-15T00:38:42;43.55;;;22.85;;
51901;SDS011;37929;53.218;6.548;2023-02-15T00:41:08;46.30;;;23.75;;
51901;SDS011;37929;53.218;6.548;2023-02-15T00:43:34;48.65;;;25.60;;
51901;SDS011;37929;53.218;6.548;2023-02-15T00:46:02;46.70;;;23.02;;
51901;SDS011;37929;53.218;6.548;2023-02-15T00:48:29;48.10;;;23.20;;
51901;SDS011;37929;53.218;6.548;2023-02-15T00:50:56;42.78;;;23.75;;
51901;SDS011;37929;53.218;6.548;2023-02-15T00:53:24;43.90;;;22.60;;
51901;SDS011;37929;53.218;6.548;2023-02-15T00:55:54;41.45;;;22.60;;
51901;SDS011;37929;53.218;6.548;2023-02-15T00:58:20;47.40;;;23.92;;
51901;SDS011;37929;53.218;6.548;2023-02-15T01:00:46;44.03;;;24.02;;
51901;SDS011;37929;53.218;6.548;2023-02-15T01:03:16;46.38;;;25.23;;
51901;SDS011;37929;53.218;6.548;2023-02-15T01:05:43;46.47;;;25.38;;
51901;SDS011;37929;53.218;6.548;2023-02-15T01:08:09;44.30;;;24.35;;
51901;SDS011;37929;53.218;6.548;2023-02-15T01:10:35;42.67;;;24.08;;
51901;SDS011;37929;53.218;6.548;2023-02-15T01:13:01;47.17;;;24.42;;
51901;SDS011;37929;53.218;6.548;2023-02-15T01:15:27;41.42;;;23.27;;
51901;SDS011;37929;53.218;6.548;2023-02-15T01:17:53;40.25;;;21.92;;
51901;SDS011;37929;53.218;6.548;2023-02-15T01:20:20;45.63;;;24.40;;
51901;SDS011;37929;53.218;6.548;2023-02-15T01:22:46;43.92;;;23.25;;
51901;SDS011;37929;53.218;6.548;2023-02-15T01:25:15;45.88;;;23.52;;
51901;SDS011;37929;53.218;6.548;2023-02-15T01:27:44;44.85;;;24.35;;
51901;SDS011;37929;53.218;6.548;2023-02-15T01:30:11;47.78;;;24.25;;
51901;SDS011;37929;53.218;6.548;2023-02-15T01:32:37;40.67;;;23.33;;
51901;SDS011;37929;53.218;6.548;2023-02-15T01:35:03;44.72;;;23.27;;
51901;SDS011;37929;53.218;6.548;2023-02-15T01:37:30;39.20;;;22.60;;
51901;SDS011;37929;53.218;6.548;2023-02-15T01:39:57;41.58;;;22.75;;
51901;SDS011;37929;53.218;6.548;2023-02-15T01:42:25;39.10;;;21.95;;
51901;SDS011;37929;53.218;6.548;2023-02-15T01:45:34;46.35;;;23.55;;
51901;SDS011;37929;53.218;6.548;2023-02-15T01:48:02;45.85;;;23.77;;
51901;SDS011;37929;53.218;6.548;2023-02-15T01:50:30;40.13;;;22.17;;
51901;SDS011;37929;53.218;6.548;2023-02-15T01:53:12;43.40;;;22.63;;
51901;SDS011;37929;53.218;6.548;2023-02-15T01:56:03;38.67;;;21.83;;
51901;SDS011;37929;53.218;6.548;2023-02-15T01:58:33;38.90;;;21.45;;
51901;SDS011;37929;53.218;6.548;2023-02-15T02:01:00;43.58;;;22.45;;
51901;SDS011;37929;53.218;6.548;2023-02-15T02:06:34;43.85;;;23.63;;
51901;SDS011;37929;53.218;6.548;2023-02-15T02:09:03;41.85;;;22.13;;
51901;SDS011;37929;53.218;6.548;2023-02-15T02:11:29;40.28;;;21.40;;
51901;SDS011;37929;53.218;6.548;2023-02-15T02:13:55;44.90;;;22.92;;
51901;SDS011;37929;53.218;6.548;2023-02-15T02:22:08;45.13;;;23.67;;
51901;SDS011;37929;53.218;6.548;2023-02-15T02:27:47;39.65;;;21.38;;
51901;SDS011;37929;53.218;6.548;2023-02-15T02:31:11;37.72;;;21.58;;
51901;SDS011;37929;53.218;6.548;2023-02-15T02:34:07;39.92;;;23.00;;
51901;SDS011;37929;53.218;6.548;2023-02-15T02:37:19;44.35;;;22.35;;
51901;SDS011;37929;53.218;6.548;2023-02-15T02:43:01;40.28;;;22.20;;
51901;SDS011;37929;53.218;6.548;2023-02-15T02:45:40;39.40;;;21.58;;
51901;SDS011;37929;53.218;6.548;2023-02-15T02:48:22;43.03;;;22.08;;
51901;SDS011;37929;53.218;6.548;2023-02-15T02:50:51;39.38;;;21.77;;
51901;SDS011;37929;53.218;6.548;2023-02-15T02:53:17;37.97;;;20.95;;
51901;SDS011;37929;53.218;6.548;2023-02-15T02:55:45;38.97;;;21.33;;
51901;SDS011;37929;53.218;6.548;2023-02-15T02:58:35;38.80;;;20.45;;
51901;SDS011;37929;53.218;6.548;2023-02-15T03:01:35;37.75;;;20.67;;
51901;SDS011;37929;53.218;6.548;2023-02-15T03:04:31;44.03;;;21.97;;
51901;SDS011;37929;53.218;6.548;2023-02-15T03:07:01;35.53;;;21.52;;
51901;SDS011;37929;53.218;6.548;2023-02-15T03:09:31;38.67;;;20.30;;
51901;SDS011;37929;53.218;6.548;2023-02-15T03:12:07;38.28;;;21.23;;
51901;SDS011;37929;53.218;6.548;2023-02-15T03:14:39;40.17;;;23.42;;
51901;SDS011;37929;53.218;6.548;2023-02-15T03:17:07;39.58;;;21.25;;
51901;SDS011;37929;53.218;6.548;2023-02-15T03:19:35;41.00;;;22.88;;
51901;SDS011;37929;53.218;6.548;2023-02-15T03:22:04;37.33;;;20.80;;
51901;SDS011;37929;53.218;6.548;2023-02-15T03:24:38;41.17;;;22.30;;
51901;SDS011;37929;53.218;6.548;2023-02-15T03:27:11;38.13;;;20.23;;
51901;SDS011;37929;53.218;6.548;2023-02-15T03:29:42;35.85;;;20.35;;
51901;SDS011;37929;53.218;6.548;2023-02-15T03:32:13;40.90;;;21.58;;
51901;SDS011;37929;53.218;6.548;2023-02-15T03:34:40;43.08;;;23.05;;
51901;SDS011;37929;53.218;6.548;2023-02-15T03:39:53;36.07;;;21.37;;
51901;SDS011;37929;53.218;6.548;2023-02-15T03:45:40;44.25;;;22.58;;
51901;SDS011;37929;53.218;6.548;2023-02-15T03:48:21;38.28;;;21.75;;
51901;SDS011;37929;53.218;6.548;2023-02-15T03:50:50;38.20;;;20.98;;
51901;SDS011;37929;53.218;6.548;2023-02-15T03:53:43;37.92;;;21.60;;
51901;SDS011;37929;53.218;6.548;2023-02-15T03:56:12;37.55;;;19.58;;
51901;SDS011;37929;53.218;6.548;2023-02-15T03:58:37;41.60;;;23.13;;
51901;SDS011;37929;53.218;6.548;2023-02-15T04:01:36;37.42;;;20.95;;
51901;SDS011;37929;53.218;6.548;2023-02-15T04:04:25;38.83;;;22.55;;
51901;SDS011;37929;53.218;6.548;2023-02-15T04:06:55;39.03;;;21.10;;
51901;SDS011;37929;53.218;6.548;2023-02-15T04:09:21;37.75;;;21.13;;
51901;SDS011;37929;53.218;6.548;2023-02-15T04:12:05;38.47;;;22.95;;
51901;SDS011;37929;53.218;6.548;2023-02-15T04:14:31;41.35;;;21.75;;
51901;SDS011;37929;53.218;6.548;2023-02-15T04:17:16;37.40;;;21.77;;
51901;SDS011;37929;53.218;6.548;2023-02-15T04:19:42;35.78;;;20.20;;
51901;SDS011;37929;53.218;6.548;2023-02-15T04:22:26;37.30;;;22.15;;
51901;SDS011;37929;53.218;6.548;2023-02-15T04:25:10;35.28;;;21.55;;
51901;SDS011;37929;53.218;6.548;2023-02-15T04:27:40;35.25;;;19.40;;
51901;SDS011;37929;53.218;6.548;2023-02-15T04:30:07;37.95;;;21.30;;
51901;SDS011;37929;53.218;6.548;2023-02-15T04:32:34;41.25;;;22.15;;
51901;SDS011;37929;53.218;6.548;2023-02-15T04:35:00;42.83;;;23.85;;
51901;SDS011;37929;53.218;6.548;2023-02-15T04:37:27;37.10;;;20.90;;
51901;SDS011;37929;53.218;6.548;2023-02-15T04:39:53;42.15;;;22.80;;
51901;SDS011;37929;53.218;6.548;2023-02-15T04:42:19;42.10;;;23.83;;
51901;SDS011;37929;53.218;6.548;2023-02-15T04:44:44;44.83;;;23.98;;
51901;SDS011;37929;53.218;6.548;2023-02-15T04:47:10;40.92;;;22.08;;
51901;SDS011;37929;53.218;6.548;2023-02-15T04:49:36;37.25;;;21.63;;
51901;SDS011;37929;53.218;6.548;2023-02-15T04:52:02;42.58;;;22.45;;
51901;SDS011;37929;53.218;6.548;2023-02-15T04:54:28;40.78;;;21.60;;
51901;SDS011;37929;53.218;6.548;2023-02-15T04:56:53;46.63;;;24.15;;
51901;SDS011;37929;53.218;6.548;2023-02-15T04:59:19;43.75;;;23.85;;
51901;SDS011;37929;53.218;6.548;2023-02-15T05:01:45;44.05;;;23.38;;
51901;SDS011;37929;53.218;6.548;2023-02-15T05:04:11;40.05;;;23.33;;
51901;SDS011;37929;53.218;6.548;2023-02-15T05:06:36;44.00;;;24.27;;
51901;SDS011;37929;53.218;6.548;2023-02-15T05:09:02;43.13;;;23.58;;
51901;SDS011;37929;53.218;6.548;2023-02-15T05:11:28;44.50;;;24.73;;
51901;SDS011;37929;53.218;6.548;2023-02-15T05:13:54;48.13;;;25.58;;
51901;SDS011;37929;53.218;6.548;2023-02-15T05:16:19;41.40;;;24.67;;
51901;SDS011;37929;53.218;6.548;2023-02-15T05:18:45;42.85;;;24.02;;
51901;SDS011;37929;53.218;6.548;2023-02-15T05:21:11;43.35;;;25.05;;
51901;SDS011;37929;53.218;6.548;2023-02-15T05:23:38;43.88;;;24.45;;
51901;SDS011;37929;53.218;6.548;2023-02-15T05:26:04;48.25;;;24.63;;
51901;SDS011;37929;53.218;6.548;2023-02-15T05:28:49;49.17;;;25.83;;
51901;SDS011;37929;53.218;6.548;2023-02-15T05:31:16;45.15;;;25.05;;
51901;SDS011;37929;53.218;6.548;2023-02-15T05:33:43;45.50;;;24.65;;
51901;SDS011;37929;53.218;6.548;2023-02-15T05:36:09;47.83;;;23.25;;
51901;SDS011;37929;53.218;6.548;2023-02-15T05:38:35;49.55;;;24.40;;
51901;SDS011;37929;53.218;6.548;2023-02-15T05:41:05;43.58;;;23.98;;
51901;SDS011;37929;53.218;6.548;2023-02-15T05:43:31;47.35;;;25.33;;
51901;SDS011;37929;53.218;6.548;2023-02-15T05:45:57;51.17;;;26.75;;
51901;SDS011;37929;53.218;6.548;2023-02-15T05:48:24;49.83;;;26.35;;
51901;SDS011;37929;53.218;6.548;2023-02-15T05:50:58;44.70;;;24.58;;
51901;SDS011;37929;53.218;6.548;2023-02-15T05:53:24;46.25;;;24.92;;
51901;SDS011;37929;53.218;6.548;2023-02-15T05:55:51;49.92;;;25.60;;
51901;SDS011;37929;53.218;6.548;2023-02-15T05:58:17;47.40;;;26.02;;
51901;SDS011;37929;53.218;6.548;2023-02-15T06:00:42;51.22;;;25.42;;
51901;SDS011;37929;53.218;6.548;2023-02-15T06:03:08;53.15;;;26.95;;
51901;SDS011;37929;53.218;6.548;2023-02-15T06:05:34;47.80;;;26.27;;
51901;SDS011;37929;53.218;6.548;2023-02-15T06:08:00;51.88;;;26.55;;
51901;SDS011;37929;53.218;6.548;2023-02-15T06:10:25;49.55;;;26.42;;
51901;SDS011;37929;53.218;6.548;2023-02-15T06:12:51;49.85;;;26.60;;
51901;SDS011;37929;53.218;6.548;2023-02-15T06:15:17;60.47;;;28.77;;
51901;SDS011;37929;53.218;6.548;2023-02-15T06:17:43;52.03;;;27.08;;
51901;SDS011;37929;53.218;6.548;2023-02-15T06:20:09;50.83;;;28.17;;
51901;SDS011;37929;53.218;6.548;2023-02-15T06:22:35;52.78;;;27.85;;
51901;SDS011;37929;53.218;6.548;2023-02-15T06:25:01;52.28;;;28.67;;
51901;SDS011;37929;53.218;6.548;2023-02-15T06:27:26;47.88;;;26.13;;
51901;SDS011;37929;53.218;6.548;2023-02-15T06:29:52;53.33;;;27.15;;
51901;SDS011;37929;53.218;6.548;2023-02-15T06:32:18;56.78;;;28.25;;
51901;SDS011;37929;53.218;6.548;2023-02-15T06:34:44;54.08;;;28.75;;
51901;SDS011;37929;53.218;6.548;2023-02-15T06:37:12;54.63;;;28.45;;
51901;SDS011;37929;53.218;6.548;2023-02-15T06:39:37;52.60;;;28.67;;
51901;SDS011;37929;53.218;6.548;2023-02-15T06:42:03;50.75;;;26.95;;
51901;SDS011;37929;53.218;6.548;2023-02-15T06:44:29;53.83;;;27.98;;
51901;SDS011;37929;53.218;6.548;2023-02-15T06:46:54;50.67;;;27.65;;
51901;SDS011;37929;53.218;6.548;2023-02-15T06:49:20;52.03;;;25.65;;
51901;SDS011;37929;53.218;6.548;2023-02-15T06:51:46;48.00;;;26.25;;
51901;SDS011;37929;53.218;6.548;2023-02-15T06:54:12;51.95;;;27.00;;
51901;SDS011;37929;53.218;6.548;2023-02-15T06:56:37;52.35;;;27.13;;
51901;SDS011;37929;53.218;6.548;2023-02-15T06:59:03;53.35;;;27.00;;
51901;SDS011;37929;53.218;6.548;2023-02-15T07:01:29;47.17;;;25.17;;
51901;SDS011;37929;53.218;6.548;2023-02-15T07:03:55;48.42;;;25.95;;
51901;SDS011;37929;53.218;6.548;2023-02-15T07:06:21;48.05;;;24.90;;
51901;SDS011;37929;53.218;6.548;2023-02-15T07:08:47;41.70;;;23.75;;
51901;SDS011;37929;53.218;6.548;2023-02-15T07:11:12;47.25;;;24.50;;
51901;SDS011;37929;53.218;6.548;2023-02-15T07:13:57;50.00;;;24.48;;
51901;SDS011;37929;53.218;6.548;2023-02-15T07:16:23;49.75;;;23.45;;
51901;SDS011;37929;53.218;6.548;2023-02-15T07:18:48;43.42;;;23.20;;
51901;SDS011;37929;53.218;6.548;2023-02-15T07:21:14;47.92;;;23.58;;
51901;SDS011;37929;53.218;6.548;2023-02-15T07:23:40;38.95;;;23.27;;
51901;SDS011;37929;53.218;6.548;2023-02-15T07:26:09;36.92;;;21.02;;
51901;SDS011;37929;53.218;6.548;2023-02-15T07:28:35;42.47;;;21.90;;
51901;SDS011;37929;53.218;6.548;2023-02-15T07:31:01;46.63;;;22.75;;
51901;SDS011;37929;53.218;6.548;2023-02-15T07:33:29;37.85;;;20.80;;
51901;SDS011;37929;53.218;6.548;2023-02-15T07:35:57;39.83;;;22.08;;
51901;SDS011;37929;53.218;6.548;2023-02-15T07:38:24;40.22;;;21.35;;
51901;SDS011;37929;53.218;6.548;2023-02-15T07:40:51;38.90;;;21.70;;
51901;SDS011;37929;53.218;6.548;2023-02-15T07:43:22;35.78;;;20.15;;
51901;SDS011;37929;53.218;6.548;2023-02-15T07:45:51;39.08;;;20.08;;
51901;SDS011;37929;53.218;6.548;2023-02-15T07:48:17;41.10;;;21.42;;
51901;SDS011;37929;53.218;6.548;2023-02-15T07:50:42;38.50;;;19.60;;
51901;SDS011;37929;53.218;6.548;2023-02-15T07:53:08;41.53;;;21.17;;
51901;SDS011;37929;53.218;6.548;2023-02-15T07:55:34;35.65;;;20.45;;
51901;SDS011;37929;53.218;6.548;2023-02-15T07:58:00;39.45;;;21.52;;
51901;SDS011;37929;53.218;6.548;2023-02-15T08:00:26;36.10;;;19.98;;
51901;SDS011;37929;53.218;6.548;2023-02-15T08:02:52;37.25;;;19.58;;
51901;SDS011;37929;53.218;6.548;2023-02-15T08:05:38;35.72;;;19.40;;
51901;SDS011;37929;53.218;6.548;2023-02-15T08:08:06;35.58;;;20.23;;
51901;SDS011;37929;53.218;6.548;2023-02-15T08:10:32;39.97;;;21.00;;
51901;SDS011;37929;53.218;6.548;2023-02-15T08:13:17;37.30;;;20.63;;
51901;SDS011;37929;53.218;6.548;2023-02-15T08:15:52;37.83;;;19.52;;
51901;SDS011;37929;53.218;6.548;2023-02-15T08:18:18;37.63;;;19.58;;
51901;SDS011;37929;53.218;6.548;2023-02-15T08:20:48;38.75;;;20.60;;
51901;SDS011;37929;53.218;6.548;2023-02-15T08:23:14;34.30;;;19.75;;
51901;SDS011;37929;53.218;6.548;2023-02-15T08:25:40;36.67;;;19.98;;
51901;SDS011;37929;53.218;6.548;2023-02-15T08:28:06;40.17;;;21.58;;
51901;SDS011;37929;53.218;6.548;2023-02-15T08:30:32;36.92;;;20.20;;
51901;SDS011;37929;53.218;6.548;2023-02-15T08:32:57;39.17;;;20.45;;
51901;SDS011;37929;53.218;6.548;2023-02-15T08:35:24;35.53;;;19.80;;
51901;SDS011;37929;53.218;6.548;2023-02-15T08:37:49;39.75;;;21.08;;
51901;SDS011;37929;53.218;6.548;2023-02-15T08:40:16;35.80;;;19.02;;
51901;SDS011;37929;53.218;6.548;2023-02-15T08:42:42;33.35;;;19.17;;
51901;SDS011;37929;53.218;6.548;2023-02-15T08:45:08;34.33;;;19.83;;
51901;SDS011;37929;53.218;6.548;2023-02-15T08:47:34;34.60;;;19.45;;
51901;SDS011;37929;53.218;6.548;2023-02-15T08:49:59;34.28;;;18.83;;
51901;SDS011;37929;53.218;6.548;2023-02-15T08:52:25;32.95;;;18.77;;
51901;SDS011;37929;53.218;6.548;2023-02-15T08:54:51;32.47;;;19.23;;
51901;SDS011;37929;53.218;6.548;2023-02-15T08:57:16;38.67;;;20.45;;
51901;SDS011;37929;53.218;6.548;2023-02-15T08:59:42;34.47;;;19.95;;
51901;SDS011;37929;53.218;6.548;2023-02-15T09:02:09;32.22;;;18.17;;
51901;SDS011;37929;53.218;6.548;2023-02-15T09:04:36;32.63;;;18.67;;
51901;SDS011;37929;53.218;6.548;2023-02-15T09:07:01;32.60;;;19.42;;
51901;SDS011;37929;53.218;6.548;2023-02-15T09:09:29;32.25;;;19.05;;
51901;SDS011;37929;53.218;6.548;2023-02-15T09:11:56;34.97;;;19.27;;
51901;SDS011;37929;53.218;6.548;2023-02-15T09:14:22;33.17;;;18.85;;
51901;SDS011;37929;53.218;6.548;2023-02-15T09:16:49;34.05;;;18.52;;
51901;SDS011;37929;53.218;6.548;2023-02-15T09:19:18;31.60;;;19.40;;
51901;SDS011;37929;53.218;6.548;2023-02-15T09:21:45;31.85;;;18.42;;
51901;SDS011;37929;53.218;6.548;2023-02-15T09:24:12;32.20;;;19.20;;
51901;SDS011;37929;53.218;6.548;2023-02-15T09:26:40;31.25;;;18.73;;
51901;SDS011;37929;53.218;6.548;2023-02-15T09:29:10;31.58;;;19.13;;
51901;SDS011;37929;53.218;6.548;2023-02-15T09:31:38;33.72;;;18.88;;
51901;SDS011;37929;53.218;6.548;2023-02-15T09:34:09;31.27;;;18.95;;
51901;SDS011;37929;53.218;6.548;2023-02-15T09:36:36;32.65;;;18.83;;
51901;SDS011;37929;53.218;6.548;2023-02-15T09:39:07;30.63;;;19.20;;
51901;SDS011;37929;53.218;6.548;2023-02-15T09:55:38;30.58;;;18.45;;
51901;SDS011;37929;53.218;6.548;2023-02-15T10:22:26;32.50;;;18.42;;
51901;SDS011;37929;53.218;6.548;2023-02-15T10:25:31;29.45;;;17.38;;
51901;SDS011;37929;53.218;6.548;2023-02-15T10:28:16;28.98;;;17.15;;
51901;SDS011;37929;53.218;6.548;2023-02-15T10:36:06;28.70;;;17.50;;
51901;SDS011;37929;53.218;6.548;2023-02-15T10:38:42;32.38;;;19.40;;
51901;SDS011;37929;53.218;6.548;2023-02-15T10:55:47;34.25;;;19.80;;
51901;SDS011;37929;53.218;6.548;2023-02-15T11:01:25;32.00;;;19.17;;
51901;SDS011;37929;53.218;6.548;2023-02-15T11:06:53;35.67;;;21.10;;
51901;SDS011;37929;53.218;6.548;2023-02-15T11:09:22;34.17;;;19.75;;
51901;SDS011;37929;53.218;6.548;2023-02-15T11:11:52;30.27;;;19.15;;
51901;SDS011;37929;53.218;6.548;2023-02-15T11:17:05;36.25;;;20.65;;
51901;SDS011;37929;53.218;6.548;2023-02-15T11:19:37;37.70;;;20.08;;
51901;SDS011;37929;53.218;6.548;2023-02-15T11:22:12;37.25;;;20.67;;
51901;SDS011;37929;53.218;6.548;2023-02-15T11:24:40;35.50;;;20.27;;
51901;SDS011;37929;53.218;6.548;2023-02-15T11:27:21;34.45;;;19.08;;
51901;SDS011;37929;53.218;6.548;2023-02-15T11:30:06;33.35;;;19.88;;
51901;SDS011;37929;53.218;6.548;2023-02-15T11:32:42;35.35;;;19.45;;
51901;SDS011;37929;53.218;6.548;2023-02-15T11:35:18;34.63;;;19.25;;
51901;SDS011;37929;53.218;6.548;2023-02-15T11:41:03;34.65;;;19.67;;
51901;SDS011;37929;53.218;6.548;2023-02-15T11:43:35;31.42;;;18.45;;
51901;SDS011;37929;53.218;6.548;2023-02-15T11:46:07;32.20;;;17.67;;
51901;SDS011;37929;53.218;6.548;2023-02-15T11:48:36;33.17;;;19.05;;
51901;SDS011;37929;53.218;6.548;2023-02-15T11:51:02;33.78;;;19.25;;
51901;SDS011;37929;53.218;6.548;2023-02-15T11:53:32;35.25;;;19.67;;
51901;SDS011;37929;53.218;6.548;2023-02-15T11:56:00;35.30;;;19.63;;
51901;SDS011;37929;53.218;6.548;2023-02-15T11:58:43;39.75;;;19.92;;
51901;SDS011;37929;53.218;6.548;2023-02-15T12:06:37;37.60;;;19.70;;
51901;SDS011;37929;53.218;6.548;2023-02-15T12:09:15;35.55;;;19.05;;
51901;SDS011;37929;53.218;6.548;2023-02-15T12:11:49;36.53;;;19.25;;
51901;SDS011;37929;53.218;6.548;2023-02-15T12:14:15;34.67;;;18.95;;
51901;SDS011;37929;53.218;6.548;2023-02-15T12:16:53;34.40;;;19.38;;
51901;SDS011;37929;53.218;6.548;2023-02-15T12:21:51;31.98;;;18.15;;
51901;SDS011;37929;53.218;6.548;2023-02-15T12:24:28;31.95;;;18.80;;
51901;SDS011;37929;53.218;6.548;2023-02-15T12:26:58;30.08;;;16.92;;
51901;SDS011;37929;53.218;6.548;2023-02-15T12:29:26;32.13;;;17.75;;
51901;SDS011;37929;53.218;6.548;2023-02-15T12:31:55;31.17;;;18.35;;
51901;SDS011;37929;53.218;6.548;2023-02-15T12:34:25;33.60;;;18.55;;
51901;SDS011;37929;53.218;6.548;2023-02-15T12:36:55;33.55;;;18.67;;
51901;SDS011;37929;53.218;6.548;2023-02-15T12:39:30;33.35;;;19.40;;
51901;SDS011;37929;53.218;6.548;2023-02-15T12:42:15;32.72;;;19.50;;
51901;SDS011;37929;53.218;6.548;2023-02-15T12:47:28;34.35;;;21.02;;
51901;SDS011;37929;53.218;6.548;2023-02-15T12:52:42;36.75;;;21.40;;
51901;SDS011;37929;53.218;6.548;2023-02-15T12:55:30;36.35;;;21.45;;
51901;SDS011;37929;53.218;6.548;2023-02-15T13:03:29;37.38;;;21.25;;
51901;SDS011;37929;53.218;6.548;2023-02-15T13:05:56;39.30;;;22.33;;
51901;SDS011;37929;53.218;6.548;2023-02-15T13:08:30;41.83;;;20.92;;
51901;SDS011;37929;53.218;6.548;2023-02-15T13:11:02;38.00;;;23.27;;
51901;SDS011;37929;53.218;6.548;2023-02-15T13:13:33;38.67;;;23.00;;
51901;SDS011;37929;53.218;6.548;2023-02-15T13:16:10;40.75;;;22.23;;
51901;SDS011;37929;53.218;6.548;2023-02-15T13:18:44;39.50;;;21.63;;
51901;SDS011;37929;53.218;6.548;2023-02-15T13:21:15;39.67;;;21.83;;
51901;SDS011;37929;53.218;6.548;2023-02-15T13:23:52;40.13;;;22.45;;
51901;SDS011;37929;53.218;6.548;2023-02-15T13:26:26;34.92;;;21.95;;
51901;SDS011;37929;53.218;6.548;2023-02-15T13:28:56;40.85;;;21.25;;
51901;SDS011;37929;53.218;6.548;2023-02-15T13:31:36;38.90;;;22.52;;
51901;SDS011;37929;53.218;6.548;2023-02-15T13:34:12;36.78;;;22.13;;
51901;SDS011;37929;53.218;6.548;2023-02-15T13:42:24;37.75;;;22.33;;
51901;SDS011;37929;53.218;6.548;2023-02-15T14:01:40;36.83;;;21.52;;
51901;SDS011;37929;53.218;6.548;2023-02-15T14:10:10;37.95;;;21.73;;
51901;SDS011;37929;53.218;6.548;2023-02-15T14:31:54;34.38;;;20.15;;
51901;SDS011;37929;53.218;6.548;2023-02-15T14:34:24;32.65;;;18.95;;
51901;SDS011;37929;53.218;6.548;2023-02-15T14:36:55;35.30;;;19.92;;
51901;SDS011;37929;53.218;6.548;2023-02-15T14:39:40;31.88;;;18.80;;
51901;SDS011;37929;53.218;6.548;2023-02-15T14:42:54;32.33;;;18.42;;
51901;SDS011;37929;53.218;6.548;2023-02-15T14:48:49;30.50;;;17.33;;
51901;SDS011;37929;53.218;6.548;2023-02-15T14:54:08;32.65;;;17.95;;
51901;SDS011;37929;53.218;6.548;2023-02-15T14:56:35;32.97;;;18.50;;
51901;SDS011;37929;53.218;6.548;2023-02-15T14:59:17;32.15;;;17.80;;
51901;SDS011;37929;53.218;6.548;2023-02-15T15:01:58;28.58;;;17.33;;
51901;SDS011;37929;53.218;6.548;2023-02-15T15:04:29;29.73;;;17.45;;
51901;SDS011;37929;53.218;6.548;2023-02-15T15:07:01;35.47;;;18.52;;
51901;SDS011;37929;53.218;6.548;2023-02-15T15:09:37;34.10;;;19.88;;
51901;SDS011;37929;53.218;6.548;2023-02-15T15:14:48;35.17;;;19.13;;
51901;SDS011;37929;53.218;6.548;2023-02-15T15:19:59;30.33;;;17.73;;
51901;SDS011;37929;53.218;6.548;2023-02-15T15:22:28;34.58;;;19.88;;
51901;SDS011;37929;53.218;6.548;2023-02-15T15:24:59;30.15;;;18.17;;
51901;SDS011;37929;53.218;6.548;2023-02-15T15:30:02;29.42;;;17.25;;
51901;SDS011;37929;53.218;6.548;2023-02-15T15:43:24;35.90;;;19.35;;
51901;SDS011;37929;53.218;6.548;2023-02-15T15:51:11;30.27;;;18.10;;
51901;SDS011;37929;53.218;6.548;2023-02-15T15:53:44;31.92;;;18.58;;
51901;SDS011;37929;53.218;6.548;2023-02-15T15:56:15;33.13;;;18.48;;
51901;SDS011;37929;53.218;6.548;2023-02-15T15:58:50;33.63;;;19.42;;
51901;SDS011;37929;53.218;6.548;2023-02-15T16:01:24;37.63;;;18.95;;
51901;SDS011;37929;53.218;6.548;2023-02-15T16:03:55;28.13;;;17.98;;
51901;SDS011;37929;53.218;6.548;2023-02-15T16:06:41;32.72;;;18.05;;
51901;SDS011;37929;53.218;6.548;2023-02-15T16:09:16;31.73;;;18.40;;
51901;SDS011;37929;53.218;6.548;2023-02-15T16:11:42;41.55;;;24.70;;
51901;SDS011;37929;53.218;6.548;2023-02-15T16:14:14;33.47;;;20.58;;
51901;SDS011;37929;53.218;6.548;2023-02-15T16:16:49;37.60;;;21.90;;
51901;SDS011;37929;53.218;6.548;2023-02-15T16:19:26;31.70;;;19.88;;
51901;SDS011;37929;53.218;6.548;2023-02-15T16:21:54;33.47;;;19.67;;
51901;SDS011;37929;53.218;6.548;2023-02-15T16:27:16;34.75;;;19.95;;
51901;SDS011;37929;53.218;6.548;2023-02-15T16:29:56;33.15;;;18.77;;
51901;SDS011;37929;53.218;6.548;2023-02-15T16:32:22;33.72;;;18.77;;
51901;SDS011;37929;53.218;6.548;2023-02-15T16:34:57;31.60;;;19.67;;
51901;SDS011;37929;53.218;6.548;2023-02-15T16:37:26;37.95;;;20.25;;
51901;SDS011;37929;53.218;6.548;2023-02-15T16:39:56;31.63;;;19.48;;
51901;SDS011;37929;53.218;6.548;2023-02-15T16:42:22;33.25;;;20.10;;
51901;SDS011;37929;53.218;6.548;2023-02-15T16:44:54;35.53;;;19.80;;
51901;SDS011;37929;53.218;6.548;2023-02-15T16:47:33;35.55;;;19.98;;
51901;SDS011;37929;53.218;6.548;2023-02-15T16:50:05;33.55;;;19.13;;
51901;SDS011;37929;53.218;6.548;2023-02-15T16:52:40;34.85;;;19.98;;
51901;SDS011;37929;53.218;6.548;2023-02-15T16:55:18;35.78;;;19.67;;
51901;SDS011;37929;53.218;6.548;2023-02-15T16:57:49;32.35;;;18.55;;
51901;SDS011;37929;53.218;6.548;2023-02-15T17:00:22;38.85;;;19.42;;
51901;SDS011;37929;53.218;6.548;2023-02-15T17:02:55;36.28;;;20.00;;
51901;SDS011;37929;53.218;6.548;2023-02-15T17:05:29;34.83;;;19.65;;
51901;SDS011;37929;53.218;6.548;2023-02-15T17:10:32;34.65;;;19.80;;
51901;SDS011;37929;53.218;6.548;2023-02-15T17:13:16;34.03;;;19.48;;
51901;SDS011;37929;53.218;6.548;2023-02-15T17:15:43;35.80;;;20.65;;
51901;SDS011;37929;53.218;6.548;2023-02-15T17:18:31;33.35;;;19.17;;
51901;SDS011;37929;53.218;6.548;2023-02-15T17:21:01;35.00;;;20.20;;
51901;SDS011;37929;53.218;6.548;2023-02-15T17:23:43;36.78;;;21.15;;
51901;SDS011;37929;53.218;6.548;2023-02-15T17:26:19;34.42;;;20.45;;
51901;SDS011;37929;53.218;6.548;2023-02-15T17:28:58;38.80;;;20.55;;
51901;SDS011;37929;53.218;6.548;2023-02-15T17:31:27;38.78;;;20.52;;
51901;SDS011;37929;53.218;6.548;2023-02-15T17:33:58;34.25;;;19.65;;
51901;SDS011;37929;53.218;6.548;2023-02-15T17:36:26;31.33;;;18.90;;
51901;SDS011;37929;53.218;6.548;2023-02-15T17:41:29;37.08;;;19.58;;
51901;SDS011;37929;53.218;6.548;2023-02-15T17:43:56;33.17;;;19.92;;
51901;SDS011;37929;53.218;6.548;2023-02-15T17:46:23;37.78;;;19.50;;
51901;SDS011;37929;53.218;6.548;2023-02-15T17:48:51;36.75;;;20.00;;
51901;SDS011;37929;53.218;6.548;2023-02-15T17:51:19;36.45;;;20.77;;
51901;SDS011;37929;53.218;6.548;2023-02-15T17:53:46;37.65;;;19.55;;
51901;SDS011;37929;53.218;6.548;2023-02-15T17:56:35;37.58;;;19.55;;
51901;SDS011;37929;53.218;6.548;2023-02-15T17:59:02;35.78;;;18.73;;
51901;SDS011;37929;53.218;6.548;2023-02-15T18:01:32;38.78;;;21.27;;